Terminal Aerodrome Forecast
Issued by NWS

Home | Current Version | Previous Version | Text Only | Print | Product List | Glossary On
Versions: 1 2 3 4 5 6 7 8 9 10 11 12 13 14 15 16 17 18 19 20 21 22 23 24 25 26 27 28 29 30 31 32
000
FTUS44 KOHX 201740
TAFCKV
TAF
KCKV 201740Z 2018/2118 32004KT P6SM FEW060 SCT180 SCT250
     FM202000 22004KT P6SM VCTS BKN060CB BKN180 BKN250
     FM210100 17003KT P6SM SCT180 BKN250
     FM211200 16005KT P6SM VCSH BKN050 BKN250
     FM211500 18005KT P6SM VCTS BKN050CB BKN250=

USA.gov is the U.S. government's official web portal to all federal, state and local government web resources and services.